sensor_id;sensor_type;location;lat;lon;timestamp;P1;durP1;ratioP1;P2;durP2;ratioP2
69197;SDS011;56311;50.298;8.514;2022-09-13T00:01:28;9.65;;;6.35;;
69197;SDS011;56311;50.298;8.514;2022-09-13T00:03:55;8.02;;;6.10;;
69197;SDS011;56311;50.298;8.514;2022-09-13T00:06:22;8.82;;;5.50;;
69197;SDS011;56311;50.298;8.514;2022-09-13T00:08:49;7.72;;;5.95;;
69197;SDS011;56311;50.298;8.514;2022-09-13T00:11:20;8.38;;;5.95;;
69197;SDS011;56311;50.298;8.514;2022-09-13T00:13:50;8.23;;;5.90;;
69197;SDS011;56311;50.298;8.514;2022-09-13T00:16:18;8.57;;;6.45;;
69197;SDS011;56311;50.298;8.514;2022-09-13T00:18:46;8.32;;;5.28;;
69197;SDS011;56311;50.298;8.514;2022-09-13T00:21:14;8.48;;;6.28;;
69197;SDS011;56311;50.298;8.514;2022-09-13T00:23:43;8.40;;;6.05;;
69197;SDS011;56311;50.298;8.514;2022-09-13T00:26:11;7.95;;;5.97;;
69197;SDS011;56311;50.298;8.514;2022-09-13T00:28:41;10.65;;;5.70;;
69197;SDS011;56311;50.298;8.514;2022-09-13T00:31:08;10.55;;;6.43;;
69197;SDS011;56311;50.298;8.514;2022-09-13T00:33:35;7.95;;;5.88;;
69197;SDS011;56311;50.298;8.514;2022-09-13T00:36:04;8.23;;;5.97;;
69197;SDS011;56311;50.298;8.514;2022-09-13T00:38:33;8.68;;;6.28;;
69197;SDS011;56311;50.298;8.514;2022-09-13T00:41:01;8.10;;;6.13;;
69197;SDS011;56311;50.298;8.514;2022-09-13T00:43:43;10.10;;;6.15;;
69197;SDS011;56311;50.298;8.514;2022-09-13T00:46:14;8.60;;;5.57;;
69197;SDS011;56311;50.298;8.514;2022-09-13T00:48:46;8.93;;;5.57;;
69197;SDS011;56311;50.298;8.514;2022-09-13T00:51:17;8.60;;;5.55;;
69197;SDS011;56311;50.298;8.514;2022-09-13T00:53:45;7.93;;;5.90;;
69197;SDS011;56311;50.298;8.514;2022-09-13T00:56:17;7.00;;;5.43;;
69197;SDS011;56311;50.298;8.514;2022-09-13T00:58:51;10.45;;;5.55;;
69197;SDS011;56311;50.298;8.514;2022-09-13T01:01:25;8.00;;;5.15;;
69197;SDS011;56311;50.298;8.514;2022-09-13T01:03:55;8.55;;;5.35;;
69197;SDS011;56311;50.298;8.514;2022-09-13T01:06:22;9.55;;;5.30;;
69197;SDS011;56311;50.298;8.514;2022-09-13T01:08:58;10.18;;;5.43;;
69197;SDS011;56311;50.298;8.514;2022-09-13T01:11:31;7.68;;;5.60;;
69197;SDS011;56311;50.298;8.514;2022-09-13T01:14:06;8.15;;;5.35;;
69197;SDS011;56311;50.298;8.514;2022-09-13T01:16:34;7.22;;;5.05;;
69197;SDS011;56311;50.298;8.514;2022-09-13T01:19:02;7.78;;;5.63;;
69197;SDS011;56311;50.298;8.514;2022-09-13T01:27:59;8.93;;;5.10;;
69197;SDS011;56311;50.298;8.514;2022-09-13T01:30:45;7.28;;;4.82;;
69197;SDS011;56311;50.298;8.514;2022-09-13T01:33:30;8.80;;;5.40;;
69197;SDS011;56311;50.298;8.514;2022-09-13T01:36:12;10.30;;;5.20;;
69197;SDS011;56311;50.298;8.514;2022-09-13T01:38:58;8.95;;;5.47;;
69197;SDS011;56311;50.298;8.514;2022-09-13T01:44:27;6.63;;;5.32;;
69197;SDS011;56311;50.298;8.514;2022-09-13T01:47:04;8.40;;;5.32;;
69197;SDS011;56311;50.298;8.514;2022-09-13T01:49:39;8.27;;;5.43;;
69197;SDS011;56311;50.298;8.514;2022-09-13T01:52:13;5.88;;;4.53;;
69197;SDS011;56311;50.298;8.514;2022-09-13T01:54:49;6.82;;;4.80;;
69197;SDS011;56311;50.298;8.514;2022-09-13T01:57:24;6.93;;;4.70;;
69197;SDS011;56311;50.298;8.514;2022-09-13T01:59:58;8.07;;;5.38;;
69197;SDS011;56311;50.298;8.514;2022-09-13T02:02:31;8.82;;;5.68;;
69197;SDS011;56311;50.298;8.514;2022-09-13T02:05:07;8.60;;;5.38;;
69197;SDS011;56311;50.298;8.514;2022-09-13T02:10:11;7.45;;;4.93;;
69197;SDS011;56311;50.298;8.514;2022-09-13T02:15:10;8.35;;;5.40;;
69197;SDS011;56311;50.298;8.514;2022-09-13T02:17:43;6.78;;;5.45;;
69197;SDS011;56311;50.298;8.514;2022-09-13T02:20:14;8.43;;;4.90;;
69197;SDS011;56311;50.298;8.514;2022-09-13T02:22:47;7.45;;;5.18;;
69197;SDS011;56311;50.298;8.514;2022-09-13T02:25:20;7.10;;;4.85;;
69197;SDS011;56311;50.298;8.514;2022-09-13T02:27:49;5.68;;;4.60;;
69197;SDS011;56311;50.298;8.514;2022-09-13T02:30:24;9.45;;;5.15;;
69197;SDS011;56311;50.298;8.514;2022-09-13T02:32:55;5.90;;;4.65;;
69197;SDS011;56311;50.298;8.514;2022-09-13T02:35:28;16.75;;;5.32;;
69197;SDS011;56311;50.298;8.514;2022-09-13T02:37:59;9.48;;;5.07;;
69197;SDS011;56311;50.298;8.514;2022-09-13T02:40:30;7.20;;;4.90;;
69197;SDS011;56311;50.298;8.514;2022-09-13T02:43:06;6.70;;;5.28;;
69197;SDS011;56311;50.298;8.514;2022-09-13T02:45:39;7.88;;;5.00;;
69197;SDS011;56311;50.298;8.514;2022-09-13T02:48:14;7.18;;;5.25;;
69197;SDS011;56311;50.298;8.514;2022-09-13T02:50:51;7.03;;;5.47;;
69197;SDS011;56311;50.298;8.514;2022-09-13T02:53:27;7.65;;;5.53;;
69197;SDS011;56311;50.298;8.514;2022-09-13T02:56:01;8.57;;;4.90;;
69197;SDS011;56311;50.298;8.514;2022-09-13T02:58:36;7.90;;;4.72;;
69197;SDS011;56311;50.298;8.514;2022-09-13T03:01:09;6.93;;;4.88;;
69197;SDS011;56311;50.298;8.514;2022-09-13T03:03:38;6.50;;;4.57;;
69197;SDS011;56311;50.298;8.514;2022-09-13T03:06:05;6.63;;;4.75;;
69197;SDS011;56311;50.298;8.514;2022-09-13T03:08:33;8.75;;;4.78;;
69197;SDS011;56311;50.298;8.514;2022-09-13T03:11:08;7.18;;;5.10;;
69197;SDS011;56311;50.298;8.514;2022-09-13T03:13:53;8.10;;;4.88;;
69197;SDS011;56311;50.298;8.514;2022-09-13T03:16:36;8.48;;;5.55;;
69197;SDS011;56311;50.298;8.514;2022-09-13T03:19:24;7.07;;;4.50;;
69197;SDS011;56311;50.298;8.514;2022-09-13T03:22:05;7.00;;;4.90;;
69197;SDS011;56311;50.298;8.514;2022-09-13T03:24:46;7.45;;;4.85;;
69197;SDS011;56311;50.298;8.514;2022-09-13T03:27:19;7.40;;;5.13;;
69197;SDS011;56311;50.298;8.514;2022-09-13T03:29:56;6.65;;;4.80;;
69197;SDS011;56311;50.298;8.514;2022-09-13T03:32:31;6.80;;;4.72;;
69197;SDS011;56311;50.298;8.514;2022-09-13T03:35:09;9.15;;;5.00;;
69197;SDS011;56311;50.298;8.514;2022-09-13T03:37:46;8.93;;;4.95;;
69197;SDS011;56311;50.298;8.514;2022-09-13T03:40:24;7.65;;;4.90;;
69197;SDS011;56311;50.298;8.514;2022-09-13T03:43:00;6.40;;;4.53;;
69197;SDS011;56311;50.298;8.514;2022-09-13T03:45:32;6.75;;;5.03;;
69197;SDS011;56311;50.298;8.514;2022-09-13T03:48:05;6.70;;;5.00;;
69197;SDS011;56311;50.298;8.514;2022-09-13T03:50:36;7.72;;;4.72;;
69197;SDS011;56311;50.298;8.514;2022-09-13T03:53:05;6.00;;;4.68;;
69197;SDS011;56311;50.298;8.514;2022-09-13T03:55:37;8.45;;;5.28;;
69197;SDS011;56311;50.298;8.514;2022-09-13T03:58:08;7.15;;;5.10;;
69197;SDS011;56311;50.298;8.514;2022-09-13T04:00:37;9.57;;;5.03;;
69197;SDS011;56311;50.298;8.514;2022-09-13T04:03:07;6.75;;;5.20;;
69197;SDS011;56311;50.298;8.514;2022-09-13T04:05:35;8.38;;;5.45;;
69197;SDS011;56311;50.298;8.514;2022-09-13T04:08:03;6.05;;;4.57;;
69197;SDS011;56311;50.298;8.514;2022-09-13T04:10:31;7.05;;;4.57;;
69197;SDS011;56311;50.298;8.514;2022-09-13T04:12:58;8.20;;;4.95;;
69197;SDS011;56311;50.298;8.514;2022-09-13T04:15:25;8.32;;;5.30;;
69197;SDS011;56311;50.298;8.514;2022-09-13T04:17:53;6.80;;;5.10;;
69197;SDS011;56311;50.298;8.514;2022-09-13T04:20:20;7.60;;;5.28;;
69197;SDS011;56311;50.298;8.514;2022-09-13T04:22:52;7.03;;;5.30;;
69197;SDS011;56311;50.298;8.514;2022-09-13T04:25:20;7.88;;;4.90;;
69197;SDS011;56311;50.298;8.514;2022-09-13T04:27:47;7.38;;;5.65;;
69197;SDS011;56311;50.298;8.514;2022-09-13T04:30:14;7.15;;;4.63;;
69197;SDS011;56311;50.298;8.514;2022-09-13T04:32:41;6.38;;;4.88;;
69197;SDS011;56311;50.298;8.514;2022-09-13T04:35:09;7.55;;;4.90;;
69197;SDS011;56311;50.298;8.514;2022-09-13T04:37:37;6.78;;;4.85;;
69197;SDS011;56311;50.298;8.514;2022-09-13T04:40:06;7.03;;;5.10;;
69197;SDS011;56311;50.298;8.514;2022-09-13T04:42:34;7.57;;;5.15;;
69197;SDS011;56311;50.298;8.514;2022-09-13T04:45:01;7.05;;;5.00;;
69197;SDS011;56311;50.298;8.514;2022-09-13T04:47:29;7.90;;;5.10;;
69197;SDS011;56311;50.298;8.514;2022-09-13T04:49:56;9.20;;;5.50;;
69197;SDS011;56311;50.298;8.514;2022-09-13T04:52:23;7.55;;;4.85;;
69197;SDS011;56311;50.298;8.514;2022-09-13T04:54:50;6.72;;;4.60;;
69197;SDS011;56311;50.298;8.514;2022-09-13T04:57:18;6.50;;;5.28;;
69197;SDS011;56311;50.298;8.514;2022-09-13T04:59:45;9.60;;;5.18;;
69197;SDS011;56311;50.298;8.514;2022-09-13T05:02:12;6.13;;;4.90;;
69197;SDS011;56311;50.298;8.514;2022-09-13T05:04:39;7.72;;;5.80;;
69197;SDS011;56311;50.298;8.514;2022-09-13T05:07:07;9.90;;;5.85;;
69197;SDS011;56311;50.298;8.514;2022-09-13T05:09:33;6.55;;;5.22;;
69197;SDS011;56311;50.298;8.514;2022-09-13T05:12:00;7.15;;;4.75;;
69197;SDS011;56311;50.298;8.514;2022-09-13T05:14:29;6.85;;;4.45;;
69197;SDS011;56311;50.298;8.514;2022-09-13T05:16:56;7.28;;;5.28;;
69197;SDS011;56311;50.298;8.514;2022-09-13T05:19:23;11.05;;;5.60;;
69197;SDS011;56311;50.298;8.514;2022-09-13T05:21:50;7.82;;;5.50;;
69197;SDS011;56311;50.298;8.514;2022-09-13T05:24:17;9.63;;;5.40;;
69197;SDS011;56311;50.298;8.514;2022-09-13T05:26:44;8.25;;;5.03;;
69197;SDS011;56311;50.298;8.514;2022-09-13T05:29:10;6.80;;;4.95;;
69197;SDS011;56311;50.298;8.514;2022-09-13T05:31:39;7.68;;;5.13;;
69197;SDS011;56311;50.298;8.514;2022-09-13T05:34:08;8.98;;;5.10;;
69197;SDS011;56311;50.298;8.514;2022-09-13T05:36:36;7.55;;;5.07;;
69197;SDS011;56311;50.298;8.514;2022-09-13T05:39:04;10.18;;;5.38;;
69197;SDS011;56311;50.298;8.514;2022-09-13T05:41:53;6.97;;;4.70;;
69197;SDS011;56311;50.298;8.514;2022-09-13T05:44:20;7.90;;;5.47;;
69197;SDS011;56311;50.298;8.514;2022-09-13T05:46:48;9.30;;;5.65;;
69197;SDS011;56311;50.298;8.514;2022-09-13T05:49:15;10.35;;;5.80;;
69197;SDS011;56311;50.298;8.514;2022-09-13T05:51:42;7.90;;;5.45;;
69197;SDS011;56311;50.298;8.514;2022-09-13T05:54:10;10.55;;;5.63;;
69197;SDS011;56311;50.298;8.514;2022-09-13T05:56:38;7.05;;;5.45;;
69197;SDS011;56311;50.298;8.514;2022-09-13T05:59:05;7.63;;;5.65;;
69197;SDS011;56311;50.298;8.514;2022-09-13T06:01:32;9.77;;;5.70;;
69197;SDS011;56311;50.298;8.514;2022-09-13T06:04:00;9.85;;;5.80;;
69197;SDS011;56311;50.298;8.514;2022-09-13T06:06:27;9.40;;;5.88;;
69197;SDS011;56311;50.298;8.514;2022-09-13T06:08:55;7.05;;;5.28;;
69197;SDS011;56311;50.298;8.514;2022-09-13T06:11:23;8.18;;;5.43;;
69197;SDS011;56311;50.298;8.514;2022-09-13T06:13:51;8.27;;;5.72;;
69197;SDS011;56311;50.298;8.514;2022-09-13T06:16:19;10.77;;;5.53;;
69197;SDS011;56311;50.298;8.514;2022-09-13T06:18:47;7.60;;;5.63;;
69197;SDS011;56311;50.298;8.514;2022-09-13T06:21:16;7.63;;;5.43;;
69197;SDS011;56311;50.298;8.514;2022-09-13T06:23:45;12.05;;;5.72;;
69197;SDS011;56311;50.298;8.514;2022-09-13T06:26:12;6.85;;;5.68;;
69197;SDS011;56311;50.298;8.514;2022-09-13T06:28:40;11.70;;;6.50;;
69197;SDS011;56311;50.298;8.514;2022-09-13T06:31:08;8.93;;;6.82;;
69197;SDS011;56311;50.298;8.514;2022-09-13T06:33:36;11.82;;;6.30;;
69197;SDS011;56311;50.298;8.514;2022-09-13T06:36:05;10.65;;;6.35;;
69197;SDS011;56311;50.298;8.514;2022-09-13T06:38:34;10.88;;;6.68;;
69197;SDS011;56311;50.298;8.514;2022-09-13T06:41:02;9.30;;;6.20;;
69197;SDS011;56311;50.298;8.514;2022-09-13T06:43:30;10.40;;;6.53;;
69197;SDS011;56311;50.298;8.514;2022-09-13T06:45:58;10.35;;;6.47;;
69197;SDS011;56311;50.298;8.514;2022-09-13T06:48:29;7.57;;;5.80;;
69197;SDS011;56311;50.298;8.514;2022-09-13T06:50:57;11.15;;;6.65;;
69197;SDS011;56311;50.298;8.514;2022-09-13T06:53:25;9.77;;;6.85;;
69197;SDS011;56311;50.298;8.514;2022-09-13T06:56:03;9.68;;;6.28;;
69197;SDS011;56311;50.298;8.514;2022-09-13T06:58:31;12.88;;;6.90;;
69197;SDS011;56311;50.298;8.514;2022-09-13T07:01:09;6.72;;;5.53;;
69197;SDS011;56311;50.298;8.514;2022-09-13T07:03:39;10.70;;;6.85;;
69197;SDS011;56311;50.298;8.514;2022-09-13T07:06:11;9.05;;;6.63;;
69197;SDS011;56311;50.298;8.514;2022-09-13T07:08:39;12.02;;;6.63;;
69197;SDS011;56311;50.298;8.514;2022-09-13T07:11:08;17.27;;;7.25;;
69197;SDS011;56311;50.298;8.514;2022-09-13T07:13:36;10.90;;;6.97;;
69197;SDS011;56311;50.298;8.514;2022-09-13T07:16:04;12.10;;;6.22;;
69197;SDS011;56311;50.298;8.514;2022-09-13T07:18:32;9.13;;;5.75;;
69197;SDS011;56311;50.298;8.514;2022-09-13T07:20:59;10.10;;;6.70;;
69197;SDS011;56311;50.298;8.514;2022-09-13T07:23:29;10.43;;;6.38;;
69197;SDS011;56311;50.298;8.514;2022-09-13T07:25:57;9.35;;;6.32;;
69197;SDS011;56311;50.298;8.514;2022-09-13T07:28:30;7.60;;;6.13;;
69197;SDS011;56311;50.298;8.514;2022-09-13T07:31:08;9.55;;;6.07;;
69197;SDS011;56311;50.298;8.514;2022-09-13T07:33:36;9.10;;;6.63;;
69197;SDS011;56311;50.298;8.514;2022-09-13T07:36:04;10.38;;;6.43;;
69197;SDS011;56311;50.298;8.514;2022-09-13T07:38:33;8.48;;;6.60;;
69197;SDS011;56311;50.298;8.514;2022-09-13T07:41:00;10.60;;;6.20;;
69197;SDS011;56311;50.298;8.514;2022-09-13T07:43:30;9.55;;;6.82;;
69197;SDS011;56311;50.298;8.514;2022-09-13T07:45:58;7.78;;;6.30;;
69197;SDS011;56311;50.298;8.514;2022-09-13T07:48:26;8.43;;;5.70;;
69197;SDS011;56311;50.298;8.514;2022-09-13T07:50:59;9.00;;;5.68;;
69197;SDS011;56311;50.298;8.514;2022-09-13T07:53:28;8.48;;;5.70;;
69197;SDS011;56311;50.298;8.514;2022-09-13T07:55:59;8.75;;;5.53;;
69197;SDS011;56311;50.298;8.514;2022-09-13T07:58:27;7.55;;;5.13;;
69197;SDS011;56311;50.298;8.514;2022-09-13T08:00:58;8.45;;;5.07;;
69197;SDS011;56311;50.298;8.514;2022-09-13T08:03:30;6.50;;;4.45;;
69197;SDS011;56311;50.298;8.514;2022-09-13T08:05:58;9.05;;;5.03;;
69197;SDS011;56311;50.298;8.514;2022-09-13T08:08:25;9.73;;;5.13;;
69197;SDS011;56311;50.298;8.514;2022-09-13T08:10:52;6.80;;;5.07;;
69197;SDS011;56311;50.298;8.514;2022-09-13T08:13:19;12.27;;;5.82;;
69197;SDS011;56311;50.298;8.514;2022-09-13T08:15:45;8.75;;;5.65;;
69197;SDS011;56311;50.298;8.514;2022-09-13T08:18:15;8.85;;;5.65;;
69197;SDS011;56311;50.298;8.514;2022-09-13T08:20:42;11.07;;;6.03;;
69197;SDS011;56311;50.298;8.514;2022-09-13T08:23:10;10.05;;;6.45;;
69197;SDS011;56311;50.298;8.514;2022-09-13T08:25:37;9.93;;;6.63;;
69197;SDS011;56311;50.298;8.514;2022-09-13T08:28:05;13.73;;;6.90;;
69197;SDS011;56311;50.298;8.514;2022-09-13T08:30:33;10.85;;;6.20;;
69197;SDS011;56311;50.298;8.514;2022-09-13T08:33:02;7.80;;;5.72;;
69197;SDS011;56311;50.298;8.514;2022-09-13T08:35:32;9.13;;;5.47;;
69197;SDS011;56311;50.298;8.514;2022-09-13T08:37:59;9.93;;;5.00;;
69197;SDS011;56311;50.298;8.514;2022-09-13T08:40:27;9.52;;;5.13;;
69197;SDS011;56311;50.298;8.514;2022-09-13T08:42:58;7.32;;;4.90;;
69197;SDS011;56311;50.298;8.514;2022-09-13T08:45:32;8.68;;;4.60;;
69197;SDS011;56311;50.298;8.514;2022-09-13T08:48:00;6.60;;;4.65;;
69197;SDS011;56311;50.298;8.514;2022-09-13T08:50:30;9.02;;;4.75;;
69197;SDS011;56311;50.298;8.514;2022-09-13T08:53:04;7.85;;;4.50;;
69197;SDS011;56311;50.298;8.514;2022-09-13T08:55:43;10.07;;;4.72;;
69197;SDS011;56311;50.298;8.514;2022-09-13T08:58:29;10.55;;;4.85;;
69197;SDS011;56311;50.298;8.514;2022-09-13T09:01:17;8.15;;;4.38;;
69197;SDS011;56311;50.298;8.514;2022-09-13T09:03:51;7.78;;;4.22;;
69197;SDS011;56311;50.298;8.514;2022-09-13T09:06:25;9.50;;;4.53;;
69197;SDS011;56311;50.298;8.514;2022-09-13T09:08:57;5.65;;;3.83;;
69197;SDS011;56311;50.298;8.514;2022-09-13T09:11:29;7.50;;;3.78;;
69197;SDS011;56311;50.298;8.514;2022-09-13T09:14:03;6.78;;;4.05;;
69197;SDS011;56311;50.298;8.514;2022-09-13T09:16:36;5.70;;;3.30;;
69197;SDS011;56311;50.298;8.514;2022-09-13T09:19:12;5.15;;;3.47;;
69197;SDS011;56311;50.298;8.514;2022-09-13T09:21:46;6.25;;;3.25;;
69197;SDS011;56311;50.298;8.514;2022-09-13T09:24:17;4.32;;;3.10;;
69197;SDS011;56311;50.298;8.514;2022-09-13T09:26:47;9.30;;;3.92;;
69197;SDS011;56311;50.298;8.514;2022-09-13T09:29:18;5.43;;;3.70;;
69197;SDS011;56311;50.298;8.514;2022-09-13T09:31:53;10.13;;;3.80;;
69197;SDS011;56311;50.298;8.514;2022-09-13T09:34:31;6.85;;;3.40;;
69197;SDS011;56311;50.298;8.514;2022-09-13T09:37:13;6.38;;;3.80;;
69197;SDS011;56311;50.298;8.514;2022-09-13T09:39:44;9.55;;;4.07;;
69197;SDS011;56311;50.298;8.514;2022-09-13T09:42:11;5.97;;;4.22;;
69197;SDS011;56311;50.298;8.514;2022-09-13T09:44:42;8.23;;;4.50;;
69197;SDS011;56311;50.298;8.514;2022-09-13T09:47:13;7.85;;;4.13;;
69197;SDS011;56311;50.298;8.514;2022-09-13T09:49:45;8.43;;;4.60;;
69197;SDS011;56311;50.298;8.514;2022-09-13T09:52:35;7.45;;;4.43;;
69197;SDS011;56311;50.298;8.514;2022-09-13T09:55:10;6.72;;;4.07;;
69197;SDS011;56311;50.298;8.514;2022-09-13T09:57:49;8.20;;;4.43;;
69197;SDS011;56311;50.298;8.514;2022-09-13T10:00:18;6.70;;;4.07;;
69197;SDS011;56311;50.298;8.514;2022-09-13T10:02:46;2.67;;;1.48;;
69197;SDS011;56311;50.298;8.514;2022-09-13T10:05:17;2.67;;;1.02;;
69197;SDS011;56311;50.298;8.514;2022-09-13T10:07:52;5.22;;;1.10;;
69197;SDS011;56311;50.298;8.514;2022-09-13T10:10:22;3.10;;;1.10;;
69197;SDS011;56311;50.298;8.514;2022-09-13T10:12:53;5.30;;;1.48;;
69197;SDS011;56311;50.298;8.514;2022-09-13T10:15:22;4.07;;;1.10;;
69197;SDS011;56311;50.298;8.514;2022-09-13T10:18:05;3.17;;;1.13;;
69197;SDS011;56311;50.298;8.514;2022-09-13T10:21:02;2.75;;;0.90;;
69197;SDS011;56311;50.298;8.514;2022-09-13T10:23:32;2.95;;;0.95;;
69197;SDS011;56311;50.298;8.514;2022-09-13T10:26:01;2.25;;;0.75;;
69197;SDS011;56311;50.298;8.514;2022-09-13T10:28:33;3.67;;;0.95;;
69197;SDS011;56311;50.298;8.514;2022-09-13T10:31:02;2.28;;;0.70;;
69197;SDS011;56311;50.298;8.514;2022-09-13T10:33:32;2.42;;;0.70;;
69197;SDS011;56311;50.298;8.514;2022-09-13T10:36:03;1.98;;;0.65;;
69197;SDS011;56311;50.298;8.514;2022-09-13T10:38:35;1.88;;;0.70;;
69197;SDS011;56311;50.298;8.514;2022-09-13T10:41:18;4.45;;;0.70;;
69197;SDS011;56311;50.298;8.514;2022-09-13T10:43:48;3.10;;;0.60;;
69197;SDS011;56311;50.298;8.514;2022-09-13T10:46:22;1.90;;;0.65;;
69197;SDS011;56311;50.298;8.514;2022-09-13T10:48:49;2.90;;;0.60;;
69197;SDS011;56311;50.298;8.514;2022-09-13T10:54:08;2.60;;;0.40;;
69197;SDS011;56311;50.298;8.514;2022-09-13T10:56:42;3.37;;;0.70;;
69197;SDS011;56311;50.298;8.514;2022-09-13T10:59:19;1.70;;;0.43;;
69197;SDS011;56311;50.298;8.514;2022-09-13T11:01:57;1.70;;;0.40;;
69197;SDS011;56311;50.298;8.514;2022-09-13T11:04:50;1.42;;;0.32;;
69197;SDS011;56311;50.298;8.514;2022-09-13T11:07:37;1.50;;;0.40;;
69197;SDS011;56311;50.298;8.514;2022-09-13T11:10:27;1.55;;;0.50;;
69197;SDS011;56311;50.298;8.514;2022-09-13T11:13:01;1.17;;;0.30;;
69197;SDS011;56311;50.298;8.514;2022-09-13T11:15:39;2.15;;;0.45;;
69197;SDS011;56311;50.298;8.514;2022-09-13T11:18:21;1.60;;;0.60;;
69197;SDS011;56311;50.298;8.514;2022-09-13T11:21:02;2.03;;;0.60;;
69197;SDS011;56311;50.298;8.514;2022-09-13T11:23:54;2.00;;;0.50;;
69197;SDS011;56311;50.298;8.514;2022-09-13T11:26:41;2.88;;;0.52;;
69197;SDS011;56311;50.298;8.514;2022-09-13T11:29:22;1.47;;;0.50;;
69197;SDS011;56311;50.298;8.514;2022-09-13T11:32:01;2.40;;;0.40;;
69197;SDS011;56311;50.298;8.514;2022-09-13T11:34:41;2.45;;;0.30;;
69197;SDS011;56311;50.298;8.514;2022-09-13T11:37:26;2.08;;;0.50;;
69197;SDS011;56311;50.298;8.514;2022-09-13T11:40:16;4.65;;;0.70;;
69197;SDS011;56311;50.298;8.514;2022-09-13T11:43:18;2.15;;;0.50;;
69197;SDS011;56311;50.298;8.514;2022-09-13T11:45:53;2.78;;;0.50;;
69197;SDS011;56311;50.298;8.514;2022-09-13T11:48:35;1.77;;;0.60;;
69197;SDS011;56311;50.298;8.514;2022-09-13T11:51:18;2.90;;;0.55;;
69197;SDS011;56311;50.298;8.514;2022-09-13T11:54:05;1.67;;;0.50;;
69197;SDS011;56311;50.298;8.514;2022-09-13T11:56:43;2.33;;;0.63;;
69197;SDS011;56311;50.298;8.514;2022-09-13T11:59:17;1.25;;;0.50;;
69197;SDS011;56311;50.298;8.514;2022-09-13T12:01:51;2.53;;;0.60;;
69197;SDS011;56311;50.298;8.514;2022-09-13T12:04:24;2.22;;;0.60;;
69197;SDS011;56311;50.298;8.514;2022-09-13T12:07:00;2.63;;;0.50;;
69197;SDS011;56311;50.298;8.514;2022-09-13T12:09:31;5.53;;;0.55;;
69197;SDS011;56311;50.298;8.514;2022-09-13T12:12:04;2.47;;;0.57;;
69197;SDS011;56311;50.298;8.514;2022-09-13T12:14:39;1.58;;;0.60;;
69197;SDS011;56311;50.298;8.514;2022-09-13T12:17:16;2.17;;;0.70;;
69197;SDS011;56311;50.298;8.514;2022-09-13T12:19:51;3.28;;;0.88;;
69197;SDS011;56311;50.298;8.514;2022-09-13T12:22:21;2.88;;;0.70;;
69197;SDS011;56311;50.298;8.514;2022-09-13T12:24:56;1.65;;;0.60;;
69197;SDS011;56311;50.298;8.514;2022-09-13T12:27:26;1.80;;;0.50;;
69197;SDS011;56311;50.298;8.514;2022-09-13T12:30:05;5.38;;;0.80;;
69197;SDS011;56311;50.298;8.514;2022-09-13T12:32:39;4.93;;;0.90;;
69197;SDS011;56311;50.298;8.514;2022-09-13T12:35:07;12.40;;;2.15;;
69197;SDS011;56311;50.298;8.514;2022-09-13T12:37:49;6.50;;;0.90;;
69197;SDS011;56311;50.298;8.514;2022-09-13T12:40:54;14.15;;;1.95;;
69197;SDS011;56311;50.298;8.514;2022-09-13T12:47:00;3.05;;;1.00;;
69197;SDS011;56311;50.298;8.514;2022-09-13T12:53:02;4.22;;;0.70;;
69197;SDS011;56311;50.298;8.514;2022-09-13T12:58:46;2.28;;;0.90;;
69197;SDS011;56311;50.298;8.514;2022-09-13T13:01:30;2.65;;;0.70;;
69197;SDS011;56311;50.298;8.514;2022-09-13T13:04:00;1.65;;;0.50;;
69197;SDS011;56311;50.298;8.514;2022-09-13T13:06:35;2.13;;;0.70;;
69197;SDS011;56311;50.298;8.514;2022-09-13T13:09:19;3.00;;;0.77;;
69197;SDS011;56311;50.298;8.514;2022-09-13T13:11:54;2.00;;;0.70;;
69197;SDS011;56311;50.298;8.514;2022-09-13T13:14:43;3.22;;;0.80;;
69197;SDS011;56311;50.298;8.514;2022-09-13T13:23:17;2.58;;;0.68;;
69197;SDS011;56311;50.298;8.514;2022-09-13T13:25:59;2.47;;;0.80;;
69197;SDS011;56311;50.298;8.514;2022-09-13T13:29:03;2.95;;;0.82;;
69197;SDS011;56311;50.298;8.514;2022-09-13T13:31:37;2.83;;;0.70;;
69197;SDS011;56311;50.298;8.514;2022-09-13T13:36:59;6.10;;;0.77;;
69197;SDS011;56311;50.298;8.514;2022-09-13T13:39:33;2.72;;;0.65;;
69197;SDS011;56311;50.298;8.514;2022-09-13T13:42:09;2.17;;;0.70;;
69197;SDS011;56311;50.298;8.514;2022-09-13T13:50:33;2.38;;;0.75;;
69197;SDS011;56311;50.298;8.514;2022-09-13T13:53:19;2.38;;;0.88;;
69197;SDS011;56311;50.298;8.514;2022-09-13T13:56:03;2.55;;;0.95;;
69197;SDS011;56311;50.298;8.514;2022-09-13T13:58:43;3.13;;;0.80;;
69197;SDS011;56311;50.298;8.514;2022-09-13T14:01:16;5.20;;;0.83;;
69197;SDS011;56311;50.298;8.514;2022-09-13T14:06:48;3.03;;;0.93;;
69197;SDS011;56311;50.298;8.514;2022-09-13T14:09:36;3.63;;;0.70;;
69197;SDS011;56311;50.298;8.514;2022-09-13T14:12:17;2.45;;;0.63;;
69197;SDS011;56311;50.298;8.514;2022-09-13T14:15:00;4.25;;;0.70;;
69197;SDS011;56311;50.298;8.514;2022-09-13T14:17:46;3.53;;;0.70;;
69197;SDS011;56311;50.298;8.514;2022-09-13T14:20:35;2.15;;;0.60;;
69197;SDS011;56311;50.298;8.514;2022-09-13T14:23:11;2.10;;;0.65;;
69197;SDS011;56311;50.298;8.514;2022-09-13T14:25:42;3.22;;;0.77;;
69197;SDS011;56311;50.298;8.514;2022-09-13T14:28:12;2.67;;;0.50;;
69197;SDS011;56311;50.298;8.514;2022-09-13T14:30:43;2.60;;;0.70;;
69197;SDS011;56311;50.298;8.514;2022-09-13T14:33:18;3.20;;;0.70;;
69197;SDS011;56311;50.298;8.514;2022-09-13T14:35:55;3.17;;;0.75;;
69197;SDS011;56311;50.298;8.514;2022-09-13T14:38:24;3.00;;;0.60;;
69197;SDS011;56311;50.298;8.514;2022-09-13T14:40:58;1.95;;;0.55;;
69197;SDS011;56311;50.298;8.514;2022-09-13T14:43:32;3.55;;;0.60;;
69197;SDS011;56311;50.298;8.514;2022-09-13T14:46:02;2.78;;;0.70;;
69197;SDS011;56311;50.298;8.514;2022-09-13T14:48:35;3.22;;;0.63;;
69197;SDS011;56311;50.298;8.514;2022-09-13T14:51:07;3.70;;;1.00;;
69197;SDS011;56311;50.298;8.514;2022-09-13T14:53:43;1.98;;;0.50;;
69197;SDS011;56311;50.298;8.514;2022-09-13T14:56:15;1.60;;;0.60;;
69197;SDS011;56311;50.298;8.514;2022-09-13T14:58:48;3.97;;;1.10;;
69197;SDS011;56311;50.298;8.514;2022-09-13T15:01:18;2.75;;;0.63;;
69197;SDS011;56311;50.298;8.514;2022-09-13T15:03:48;2.67;;;0.70;;
69197;SDS011;56311;50.298;8.514;2022-09-13T15:06:21;3.05;;;0.63;;
69197;SDS011;56311;50.298;8.514;2022-09-13T15:08:50;2.50;;;0.80;;
69197;SDS011;56311;50.298;8.514;2022-09-13T15:11:27;4.95;;;0.88;;
69197;SDS011;56311;50.298;8.514;2022-09-13T15:16:50;2.20;;;0.68;;
69197;SDS011;56311;50.298;8.514;2022-09-13T15:19:27;2.28;;;0.63;;
69197;SDS011;56311;50.298;8.514;2022-09-13T15:24:47;5.07;;;0.93;;
69197;SDS011;56311;50.298;8.514;2022-09-13T15:27:18;2.03;;;0.80;;
69197;SDS011;56311;50.298;8.514;2022-09-13T15:29:48;3.60;;;0.80;;
69197;SDS011;56311;50.298;8.514;2022-09-13T15:35:14;4.15;;;0.95;;
69197;SDS011;56311;50.298;8.514;2022-09-13T15:37:43;1.80;;;0.70;;
69197;SDS011;56311;50.298;8.514;2022-09-13T15:40:12;1.77;;;0.52;;
69197;SDS011;56311;50.298;8.514;2022-09-13T15:42:44;2.83;;;0.60;;
69197;SDS011;56311;50.298;8.514;2022-09-13T15:45:13;2.33;;;0.50;;
69197;SDS011;56311;50.298;8.514;2022-09-13T15:47:43;3.45;;;0.70;;
69197;SDS011;56311;50.298;8.514;2022-09-13T15:50:17;5.60;;;0.80;;
69197;SDS011;56311;50.298;8.514;2022-09-13T15:52:46;2.15;;;0.60;;
69197;SDS011;56311;50.298;8.514;2022-09-13T15:55:13;2.20;;;0.60;;
69197;SDS011;56311;50.298;8.514;2022-09-13T15:57:41;3.25;;;0.60;;
69197;SDS011;56311;50.298;8.514;2022-09-13T16:00:14;3.40;;;0.50;;
69197;SDS011;56311;50.298;8.514;2022-09-13T16:02:43;2.85;;;0.55;;
69197;SDS011;56311;50.298;8.514;2022-09-13T16:05:10;1.80;;;0.60;;
69197;SDS011;56311;50.298;8.514;2022-09-13T16:07:39;3.08;;;0.57;;
69197;SDS011;56311;50.298;8.514;2022-09-13T16:10:10;5.53;;;0.90;;
69197;SDS011;56311;50.298;8.514;2022-09-13T16:12:40;4.80;;;0.63;;